createdAt,value
2018-04-02T00:00:17.054Z,98.10
2018-04-02T00:01:17.037Z,100.90
2018-04-02T00:02:17.015Z,103.40
2018-04-02T00:03:16.995Z,102.30
2018-04-02T00:04:16.977Z,102.10
2018-04-02T00:05:16.956Z,102.50
2018-04-02T00:06:16.933Z,103.90
2018-04-02T00:07:16.913Z,105.80
2018-04-02T00:08:16.887Z,106.20
2018-04-02T00:09:16.870Z,109.20
2018-04-02T00:10:16.846Z,109.90
2018-04-02T00:11:16.830Z,113.20
2018-04-02T00:12:16.801Z,111.80
2018-04-02T00:13:16.781Z,114.00
2018-04-02T00:14:16.763Z,112.80
2018-04-02T00:15:16.738Z,112.60
2018-04-02T00:16:16.719Z,110.60
2018-04-02T00:17:16.703Z,113.60
2018-04-02T00:18:16.672Z,115.80
2018-04-02T00:19:16.651Z,114.70
2018-04-02T00:20:16.747Z,111.90
2018-04-02T00:21:16.609Z,112.90
2018-04-02T00:22:16.593Z,114.70
2018-04-02T00:23:16.616Z,113.70
2018-04-02T00:24:16.546Z,111.40
2018-04-02T00:25:16.525Z,114.50
2018-04-02T00:26:16.501Z,113.90
2018-04-02T00:27:16.479Z,115.30
2018-04-02T00:28:16.458Z,115.90
2018-04-02T00:29:16.438Z,117.10
2018-04-02T00:30:16.421Z,118.00
2018-04-02T00:31:16.397Z,118.30
2018-04-02T00:32:16.373Z,122.30
2018-04-02T00:33:16.359Z,123.20
2018-04-02T00:34:16.332Z,125.10
2018-04-02T00:35:16.310Z,123.40
2018-04-02T00:36:16.294Z,122.80
2018-04-02T00:37:16.266Z,125.60
2018-04-02T00:38:16.247Z,127.30
2018-04-02T00:39:16.228Z,125.10
2018-04-02T00:40:16.207Z,126.30
2018-04-02T00:41:16.185Z,125.80
2018-04-02T00:42:16.167Z,125.40
2018-04-02T00:43:16.140Z,122.20
2018-04-02T00:44:16.264Z,117.50
2018-04-02T00:45:16.102Z,114.60
2018-04-02T00:46:16.086Z,122.20
2018-04-02T00:47:16.120Z,122.80
2018-04-02T00:48:16.036Z,125.50
2018-04-02T00:49:16.011Z,125.00
2018-04-02T00:50:16.045Z,124.80
2018-04-02T00:51:15.968Z,121.90
2018-04-02T00:52:15.948Z,121.90
2018-04-02T00:53:15.932Z,120.40
2018-04-02T00:54:15.918Z,119.60
2018-04-02T00:55:15.886Z,118.60
2018-04-02T00:56:15.864Z,117.60
2018-04-02T00:57:15.844Z,121.20
2018-04-02T00:58:15.820Z,120.90
2018-04-02T00:59:15.808Z,120.30
2018-04-02T01:00:15.777Z,117.30
2018-04-02T01:01:15.758Z,117.20
2018-04-02T01:02:15.735Z,116.50
2018-04-02T01:03:15.714Z,120.40
2018-04-02T01:04:15.694Z,114.20
2018-04-02T01:05:15.678Z,109.50
2018-04-02T01:06:15.655Z,108.90
2018-04-02T01:07:15.629Z,104.80
2018-04-02T01:08:15.624Z,101.70
2018-04-02T01:09:15.586Z,101.50
2018-04-02T01:10:15.724Z,100.10
2018-04-02T01:11:15.547Z,102.70
2018-04-02T01:12:15.522Z,97.40
2018-04-02T01:13:15.509Z,102.10
2018-04-02T01:14:15.483Z,99.30
2018-04-02T01:15:15.458Z,98.40
2018-04-02T01:16:15.493Z,100.30
2018-04-02T01:17:15.416Z,93.50
2018-04-02T01:18:15.397Z,84.50
2018-04-02T01:19:15.373Z,84.20
2018-04-02T01:20:15.353Z,88.50
2018-04-02T01:21:15.333Z,86.80
2018-04-02T01:22:15.320Z,84.30
2018-04-02T01:23:15.291Z,85.40
2018-04-02T01:24:15.266Z,82.80
2018-04-02T01:25:15.244Z,80.70
2018-04-02T01:26:15.224Z,82.80
2018-04-02T01:27:15.205Z,86.00
2018-04-02T01:28:15.181Z,89.30
2018-04-02T01:29:15.163Z,89.20
2018-04-02T01:30:15.141Z,88.40
2018-04-02T01:31:15.116Z,86.60
2018-04-02T01:32:15.203Z,86.60
2018-04-02T01:33:15.073Z,89.10
2018-04-02T01:34:15.052Z,86.80
2018-04-02T01:35:15.194Z,86.90
2018-04-02T01:36:15.023Z,86.70
2018-04-02T01:37:14.991Z,86.10
2018-04-02T01:38:14.975Z,85.90
2018-04-02T01:39:14.945Z,87.50
2018-04-02T01:40:14.925Z,85.70
2018-04-02T01:41:14.902Z,86.80
2018-04-02T01:42:14.881Z,85.20
2018-04-02T01:43:14.859Z,85.00
2018-04-02T01:44:14.840Z,86.90
2018-04-02T01:45:14.869Z,85.60
2018-04-02T01:46:14.794Z,84.30
2018-04-02T01:47:14.771Z,85.90
2018-04-02T01:48:14.750Z,82.70
2018-04-02T01:49:14.733Z,83.20
2018-04-02T01:50:14.713Z,83.70
2018-04-02T01:51:14.688Z,82.30
2018-04-02T01:52:14.668Z,81.60
2018-04-02T01:53:14.649Z,81.30
2018-04-02T01:54:14.629Z,80.30
2018-04-02T01:55:14.600Z,79.80
2018-04-02T01:56:14.580Z,79.50
2018-04-02T01:57:14.557Z,78.40
2018-04-02T01:58:14.614Z,76.20
2018-04-02T01:59:14.518Z,74.20
2018-04-02T02:00:14.492Z,75.10
2018-04-02T02:01:14.483Z,73.60
2018-04-02T02:02:14.454Z,74.70
2018-04-02T02:03:14.446Z,73.30
2018-04-02T02:04:14.406Z,71.60
2018-04-02T02:05:14.394Z,72.30
2018-04-02T02:06:14.368Z,72.60
2018-04-02T02:07:14.348Z,73.00
2018-04-02T02:08:14.322Z,73.70
2018-04-02T02:09:14.299Z,71.10
2018-04-02T02:10:14.279Z,71.90
2018-04-02T02:11:14.259Z,71.70
2018-04-02T02:12:14.236Z,69.60
2018-04-02T02:13:14.223Z,69.10
2018-04-02T02:14:14.191Z,68.70
2018-04-02T02:15:14.168Z,67.40
2018-04-02T02:16:14.149Z,69.00
2018-04-02T02:17:14.129Z,65.50
2018-04-02T02:18:14.105Z,66.00
2018-04-02T02:19:14.085Z,67.20
2018-04-02T02:20:14.064Z,67.30
2018-04-02T02:21:14.042Z,67.50
2018-04-02T02:22:14.025Z,68.20
2018-04-02T02:23:13.997Z,66.50
2018-04-02T02:24:13.976Z,67.00
2018-04-02T02:25:13.969Z,67.40
2018-04-02T02:26:13.934Z,67.70
2018-04-02T02:27:13.914Z,66.40
2018-04-02T02:28:13.994Z,65.40
2018-04-02T02:29:13.869Z,66.40
2018-04-02T02:30:13.851Z,63.20
2018-04-02T02:31:13.824Z,63.00
2018-04-02T02:32:13.803Z,63.60
2018-04-02T02:33:13.783Z,62.70
2018-04-02T02:34:13.764Z,62.10
2018-04-02T02:35:13.739Z,62.20
2018-04-02T02:36:13.725Z,63.20
2018-04-02T02:37:13.699Z,60.70
2018-04-02T02:38:13.735Z,62.20
2018-04-02T02:39:13.652Z,62.50
2018-04-02T02:40:13.634Z,62.20
2018-04-02T02:41:13.625Z,62.70
2018-04-02T02:42:13.591Z,61.60
2018-04-02T02:43:13.567Z,64.00
2018-04-02T02:44:13.548Z,62.40
2018-04-02T02:45:13.524Z,60.40
2018-04-02T02:46:13.507Z,61.10
2018-04-02T02:47:13.484Z,60.80
2018-04-02T02:48:13.463Z,62.00
2018-04-02T02:49:13.441Z,60.50
2018-04-02T02:50:13.417Z,62.50
2018-04-02T02:51:13.397Z,58.30
2018-04-02T02:52:13.375Z,60.80
2018-04-02T02:53:13.353Z,59.60
2018-04-02T02:54:13.330Z,60.60
2018-04-02T02:55:13.310Z,60.90
2018-04-02T02:56:13.297Z,60.00
2018-04-02T02:57:13.270Z,60.60
2018-04-02T02:58:13.257Z,60.80
2018-04-02T02:59:13.223Z,62.30
2018-04-02T03:00:13.224Z,62.00
2018-04-02T03:01:13.180Z,61.60
2018-04-02T03:02:13.171Z,63.30
2018-04-02T03:03:13.143Z,64.50
2018-04-02T03:04:13.117Z,64.10
2018-04-02T03:05:13.092Z,63.70
2018-04-02T03:06:13.072Z,63.70
2018-04-02T03:07:13.053Z,65.50
2018-04-02T03:08:13.030Z,63.60
2018-04-02T03:09:13.019Z,65.50
2018-04-02T03:10:12.989Z,64.60
2018-04-02T03:11:12.963Z,64.00
2018-04-02T03:12:12.944Z,66.10
2018-04-02T03:13:12.921Z,67.30
2018-04-02T03:14:12.899Z,67.40
2018-04-02T03:15:12.877Z,65.80
2018-04-02T03:16:12.855Z,63.90
2018-04-02T03:17:12.833Z,63.80
2018-04-02T03:18:12.812Z,64.10
2018-04-02T03:19:12.835Z,62.90
2018-04-02T03:20:12.788Z,64.00
2018-04-02T03:21:12.748Z,63.20
2018-04-02T03:22:12.731Z,63.40
2018-04-02T03:23:12.706Z,61.30
2018-04-02T03:24:12.682Z,61.40
2018-04-02T03:25:12.677Z,64.80
2018-04-02T03:26:12.638Z,62.90
2018-04-02T03:27:12.616Z,62.00
2018-04-02T03:28:12.594Z,63.30
2018-04-02T03:29:12.577Z,60.80
2018-04-02T03:30:12.577Z,60.70
2018-04-02T03:31:12.531Z,60.30
2018-04-02T03:32:12.508Z,60.90
2018-04-02T03:33:12.572Z,61.30
2018-04-02T03:34:12.465Z,66.80
2018-04-02T03:35:12.446Z,64.70
2018-04-02T03:36:12.420Z,63.60
2018-04-02T03:37:12.398Z,64.00
2018-04-02T03:38:12.377Z,63.60
2018-04-02T03:39:12.356Z,62.20
2018-04-02T03:40:12.335Z,64.80
2018-04-02T03:41:12.313Z,66.50
2018-04-02T03:42:12.297Z,70.20
2018-04-02T03:43:12.269Z,75.30
2018-04-02T03:44:12.247Z,68.40
2018-04-02T03:45:12.227Z,66.50
2018-04-02T03:46:12.204Z,67.20
2018-04-02T03:47:12.185Z,68.70
2018-04-02T03:48:12.164Z,67.10
2018-04-02T03:49:12.140Z,66.60
2018-04-02T03:50:12.120Z,65.80
2018-04-02T03:51:12.098Z,67.40
2018-04-02T03:52:12.145Z,66.80
2018-04-02T03:53:12.055Z,66.10
2018-04-02T03:54:12.034Z,65.90
2018-04-02T03:55:12.027Z,66.60
2018-04-02T03:56:11.987Z,70.90
2018-04-02T03:57:11.968Z,75.60
2018-04-02T03:58:11.969Z,75.90
2018-04-02T03:59:11.923Z,75.80
2018-04-02T04:00:11.912Z,75.40
2018-04-02T04:01:11.887Z,74.40
2018-04-02T04:02:11.862Z,76.10
2018-04-02T04:03:11.837Z,77.20
2018-04-02T04:04:11.825Z,79.30
2018-04-02T04:05:11.795Z,81.10
2018-04-02T04:06:11.782Z,84.90
2018-04-02T04:07:11.779Z,82.80
2018-04-02T04:08:11.737Z,88.60
2018-04-02T04:09:11.711Z,87.00
2018-04-02T04:10:11.691Z,89.20
2018-04-02T04:11:11.674Z,87.90
2018-04-02T04:12:11.646Z,89.20
2018-04-02T04:13:11.625Z,84.10
2018-04-02T04:14:11.601Z,81.30
2018-04-02T04:15:11.580Z,83.70
2018-04-02T04:16:11.560Z,85.20
2018-04-02T04:17:11.540Z,86.50
2018-04-02T04:18:11.515Z,89.70
2018-04-02T04:19:11.499Z,87.70
2018-04-02T04:20:11.477Z,88.60
2018-04-02T04:21:11.453Z,84.00
2018-04-02T04:22:11.447Z,84.90
2018-04-02T04:23:11.406Z,83.50
2018-04-02T04:24:11.391Z,79.30
2018-04-02T04:25:11.386Z,78.50
2018-04-02T04:26:11.344Z,77.50
2018-04-02T04:27:11.323Z,73.20
2018-04-02T04:28:11.405Z,71.10
2018-04-02T04:29:11.276Z,73.20
2018-04-02T04:30:11.257Z,73.80
2018-04-02T04:31:11.238Z,74.40
2018-04-02T04:32:11.214Z,75.20
2018-04-02T04:33:11.192Z,75.50
2018-04-02T04:34:11.173Z,75.00
2018-04-02T04:35:11.147Z,76.30
2018-04-02T04:36:11.129Z,78.60
2018-04-02T04:37:11.109Z,75.10
2018-04-02T04:38:11.085Z,75.70
2018-04-02T04:39:11.061Z,75.20
2018-04-02T04:40:11.041Z,77.20
2018-04-02T04:41:11.020Z,76.50
2018-04-02T04:42:10.996Z,75.90
2018-04-02T04:43:10.976Z,76.40
2018-04-02T04:44:10.960Z,75.90
2018-04-02T04:45:10.932Z,72.80
2018-04-02T04:46:10.911Z,73.10
2018-04-02T04:47:11.039Z,73.50
2018-04-02T04:48:10.866Z,75.00
2018-04-02T04:49:10.846Z,73.50
2018-04-02T04:50:10.887Z,75.40
2018-04-02T04:51:10.801Z,74.30
2018-04-02T04:52:10.779Z,73.50
2018-04-02T04:53:10.759Z,71.80
2018-04-02T04:54:10.738Z,70.10
2018-04-02T04:55:10.715Z,73.40
2018-04-02T04:56:10.695Z,73.00
2018-04-02T04:57:10.672Z,68.60
2018-04-02T04:58:10.647Z,70.70
2018-04-02T04:59:10.626Z,72.60
2018-04-02T05:00:10.607Z,70.80
2018-04-02T05:01:10.585Z,74.00
2018-04-02T05:02:10.565Z,72.70
2018-04-02T05:03:10.541Z,76.20
2018-04-02T05:04:10.517Z,79.10
2018-04-02T05:05:10.494Z,78.70
2018-04-02T05:06:10.474Z,81.00
2018-04-02T05:07:10.455Z,84.60
2018-04-02T05:08:10.430Z,83.50
2018-04-02T05:09:10.409Z,83.80
2018-04-02T05:10:10.386Z,86.60
2018-04-02T05:11:10.365Z,83.90
2018-04-02T05:12:10.343Z,84.80
2018-04-02T05:13:10.321Z,83.70
2018-04-02T05:14:10.301Z,82.70
2018-04-02T05:15:10.275Z,83.90
2018-04-02T05:16:10.261Z,84.90
2018-04-02T05:17:10.399Z,84.50
2018-04-02T05:18:10.221Z,85.90
2018-04-02T05:19:10.192Z,85.20
2018-04-02T05:20:10.189Z,86.70
2018-04-02T05:21:10.146Z,85.10
2018-04-02T05:22:10.124Z,85.30
2018-04-02T05:23:10.103Z,88.00
2018-04-02T05:24:10.083Z,90.80
2018-04-02T05:25:10.065Z,92.40
2018-04-02T05:26:10.036Z,90.50
2018-04-02T05:27:10.014Z,94.80
2018-04-02T05:28:09.998Z,96.80
2018-04-02T05:29:09.988Z,92.10
2018-04-02T05:30:09.954Z,92.20
2018-04-02T05:31:09.927Z,94.10
2018-04-02T05:32:09.904Z,96.80
2018-04-02T05:33:09.882Z,96.60
2018-04-02T05:34:09.860Z,94.80
2018-04-02T05:35:09.862Z,96.00
2018-04-02T05:36:09.918Z,96.30
2018-04-02T05:37:09.795Z,95.90
2018-04-02T05:38:09.774Z,98.60
2018-04-02T05:39:09.806Z,99.20
2018-04-02T05:40:09.731Z,97.10
2018-04-02T05:41:09.711Z,97.70
2018-04-02T05:42:09.691Z,98.10
2018-04-02T05:43:09.662Z,98.40
2018-04-02T05:44:09.643Z,94.30
2018-04-02T05:45:09.621Z,102.00
2018-04-02T05:46:09.600Z,99.80
2018-04-02T05:47:09.618Z,102.70
2018-04-02T05:48:09.554Z,102.10
2018-04-02T05:49:09.531Z,101.60
2018-04-02T05:50:09.509Z,101.10
2018-04-02T05:51:09.489Z,103.70
2018-04-02T05:52:09.474Z,98.40
2018-04-02T05:53:09.444Z,101.20
2018-04-02T05:54:09.423Z,100.20
2018-04-02T05:55:09.405Z,100.00
2018-04-02T05:56:09.384Z,103.60
2018-04-02T05:57:09.369Z,99.80
2018-04-02T05:58:09.507Z,100.70
2018-04-02T05:59:09.321Z,100.30
2018-04-02T06:00:09.289Z,101.10
2018-04-02T06:01:09.296Z,102.90
2018-04-02T06:02:09.248Z,103.40
2018-04-02T06:03:09.233Z,103.00
2018-04-02T06:04:09.206Z,103.30
2018-04-02T06:05:09.233Z,103.10
2018-04-02T06:06:09.221Z,103.00
2018-04-02T06:07:09.136Z,103.90
2018-04-02T06:08:09.116Z,103.00
2018-04-02T06:09:09.165Z,101.80
2018-04-02T06:10:09.076Z,98.60
2018-04-02T06:11:09.049Z,102.60
2018-04-02T06:12:09.037Z,101.00
2018-04-02T06:13:09.006Z,98.30
2018-04-02T06:14:08.989Z,98.30
2018-04-02T06:15:08.966Z,99.80
2018-04-02T06:16:08.999Z,101.50
2018-04-02T06:17:08.918Z,99.00
2018-04-02T06:18:08.897Z,99.50
2018-04-02T06:19:08.876Z,100.90
2018-04-02T06:20:08.856Z,98.80
2018-04-02T06:21:08.835Z,98.00
2018-04-02T06:22:08.811Z,102.40
2018-04-02T06:23:08.790Z,99.10
2018-04-02T06:24:08.768Z,97.90
2018-04-02T06:25:08.761Z,99.40
2018-04-02T06:26:08.727Z,100.50
2018-04-02T06:27:08.721Z,97.00
2018-04-02T06:28:08.712Z,96.00
2018-04-02T06:29:08.660Z,96.40
2018-04-02T06:30:08.641Z,98.30
2018-04-02T06:31:08.625Z,96.90
2018-04-02T06:32:08.599Z,98.10
2018-04-02T06:33:08.576Z,100.90
2018-04-02T06:34:08.559Z,99.70
2018-04-02T06:35:08.534Z,98.30
2018-04-02T06:36:08.522Z,100.00
2018-04-02T06:37:08.529Z,93.40
2018-04-02T06:38:08.470Z,100.50
2018-04-02T06:39:08.446Z,98.40
2018-04-02T06:40:08.428Z,98.30
2018-04-02T06:41:08.406Z,95.90
2018-04-02T06:42:08.385Z,96.90
2018-04-02T06:43:08.362Z,96.20
2018-04-02T06:44:08.355Z,97.80
2018-04-02T06:45:08.363Z,94.90
2018-04-02T06:46:08.303Z,94.30
2018-04-02T06:47:08.282Z,95.90
2018-04-02T06:48:08.263Z,94.80
2018-04-02T06:49:08.243Z,95.00
2018-04-02T06:50:08.217Z,95.80
2018-04-02T06:51:08.216Z,91.70
2018-04-02T06:52:08.176Z,94.30
2018-04-02T06:53:08.166Z,93.30
2018-04-02T06:54:08.137Z,88.50
2018-04-02T06:55:08.114Z,89.10
2018-04-02T06:56:08.096Z,91.00
2018-04-02T06:57:08.075Z,93.50
2018-04-02T06:58:08.118Z,88.30
2018-04-02T06:59:08.031Z,91.70
2018-04-02T07:00:08.011Z,91.60
2018-04-02T07:01:07.992Z,90.70
2018-04-02T07:02:07.977Z,92.60
2018-04-02T07:03:07.949Z,96.10
2018-04-02T07:04:07.929Z,95.90
2018-04-02T07:05:07.909Z,94.40
2018-04-02T07:06:07.890Z,94.30
2018-04-02T07:07:07.994Z,91.00
2018-04-02T07:08:07.845Z,91.90
2018-04-02T07:09:07.825Z,92.00
2018-04-02T07:10:07.909Z,89.90
2018-04-02T07:11:07.782Z,92.50
2018-04-02T07:12:07.765Z,93.70
2018-04-02T07:13:07.744Z,90.80
2018-04-02T07:14:07.723Z,91.20
2018-04-02T07:15:07.699Z,91.40
2018-04-02T07:16:07.679Z,92.60
2018-04-02T07:17:07.658Z,90.40
2018-04-02T07:18:07.639Z,90.60
2018-04-02T07:19:07.618Z,90.90
2018-04-02T07:20:07.603Z,86.90
2018-04-02T07:21:07.580Z,88.40
2018-04-02T07:22:07.558Z,87.00
2018-04-02T07:23:07.570Z,87.60
2018-04-02T07:24:07.517Z,87.70
2018-04-02T07:25:07.498Z,85.90
2018-04-02T07:26:07.481Z,88.90
2018-04-02T07:27:07.458Z,87.60
2018-04-02T07:28:07.441Z,84.20
2018-04-02T07:29:07.438Z,82.60
2018-04-02T07:30:07.397Z,82.60
2018-04-02T07:31:07.375Z,83.80
2018-04-02T07:32:07.356Z,81.90
2018-04-02T07:33:07.338Z,82.90
2018-04-02T07:34:07.320Z,82.60
2018-04-02T07:35:07.299Z,82.60
2018-04-02T07:36:07.277Z,85.20
2018-04-02T07:37:07.266Z,84.50
2018-04-02T07:38:07.239Z,81.30
2018-04-02T07:39:07.319Z,82.40
2018-04-02T07:40:07.202Z,82.50
2018-04-02T07:41:07.183Z,83.20
2018-04-02T07:42:07.159Z,82.60
2018-04-02T07:43:07.155Z,82.00
2018-04-02T07:44:07.149Z,83.50
2018-04-02T07:45:07.117Z,82.00
2018-04-02T07:46:07.078Z,79.30
2018-04-02T07:47:07.065Z,80.70
2018-04-02T07:48:07.046Z,83.40
2018-04-02T07:49:07.100Z,79.90
2018-04-02T07:50:07.003Z,81.00
2018-04-02T07:51:06.985Z,77.50
2018-04-02T07:52:07.002Z,78.90
2018-04-02T07:53:06.945Z,77.50
2018-04-02T07:54:06.926Z,81.50
2018-04-02T07:55:06.964Z,80.20
2018-04-02T07:56:06.889Z,78.10
2018-04-02T07:57:06.941Z,77.60
2018-04-02T07:58:06.854Z,73.80
2018-04-02T07:59:06.838Z,71.00
2018-04-02T08:00:06.830Z,68.00
2018-04-02T08:01:06.805Z,72.20
2018-04-02T08:02:06.799Z,72.50
2018-04-02T08:03:06.787Z,71.90
2018-04-02T08:04:06.749Z,71.90
2018-04-02T08:05:06.733Z,76.00
2018-04-02T08:06:06.715Z,69.80
2018-04-02T08:07:06.698Z,68.80
2018-04-02T08:08:06.676Z,66.10
2018-04-02T08:09:06.662Z,63.90
2018-04-02T08:10:06.646Z,66.20
2018-04-02T08:11:06.626Z,69.90
2018-04-02T08:12:06.673Z,69.80
2018-04-02T08:13:06.593Z,69.30
2018-04-02T08:14:06.574Z,65.80
2018-04-02T08:15:06.594Z,66.40
2018-04-02T08:16:06.553Z,65.20
2018-04-02T08:17:06.523Z,65.40
2018-04-02T08:18:06.520Z,61.30
2018-04-02T08:19:06.620Z,65.50
2018-04-02T08:20:06.482Z,64.40
2018-04-02T08:21:06.454Z,64.30
2018-04-02T08:22:06.473Z,59.90
2018-04-02T08:23:06.429Z,62.10
2018-04-02T08:24:06.404Z,64.50
2018-04-02T08:25:06.391Z,62.30
2018-04-02T08:26:06.381Z,60.70
2018-04-02T08:27:06.359Z,62.10
2018-04-02T08:28:06.353Z,59.70
2018-04-02T08:29:06.325Z,57.80
2018-04-02T08:30:06.310Z,59.30
2018-04-02T08:31:06.307Z,61.20
2018-04-02T08:32:06.275Z,62.10
2018-04-02T08:33:06.258Z,64.10
2018-04-02T08:34:06.246Z,61.50
2018-04-02T08:35:06.229Z,64.90
2018-04-02T08:36:06.216Z,63.50
2018-04-02T08:37:06.200Z,63.40
2018-04-02T08:38:06.230Z,63.70
2018-04-02T08:39:06.164Z,64.30
2018-04-02T08:40:06.174Z,58.90
2018-04-02T08:41:06.139Z,62.00
2018-04-02T08:42:06.121Z,62.00
2018-04-02T08:43:06.109Z,62.40
2018-04-02T08:44:06.090Z,63.70
2018-04-02T08:45:06.110Z,60.30
2018-04-02T08:46:06.061Z,62.30
2018-04-02T08:47:06.052Z,60.10
2018-04-02T08:48:06.041Z,62.00
2018-04-02T08:49:06.017Z,62.30
2018-04-02T08:50:06.003Z,61.10
2018-04-02T08:51:05.993Z,59.10
2018-04-02T08:52:05.978Z,59.70
2018-04-02T08:53:05.957Z,59.00
2018-04-02T08:54:05.957Z,62.10
2018-04-02T08:55:05.932Z,57.30
2018-04-02T08:56:05.916Z,58.20
2018-04-02T08:57:05.902Z,58.30
2018-04-02T08:58:05.888Z,58.50
2018-04-02T08:59:05.872Z,52.80
2018-04-02T09:00:05.878Z,57.30
2018-04-02T09:01:05.863Z,56.90
2018-04-02T09:02:05.830Z,56.60
2018-04-02T09:03:05.821Z,56.80
2018-04-02T09:04:05.801Z,55.10
2018-04-02T09:05:05.787Z,56.50
2018-04-02T09:06:05.768Z,56.30
2018-04-02T09:07:05.760Z,53.40
2018-04-02T09:08:05.738Z,54.20
2018-04-02T09:09:05.725Z,54.00
2018-04-02T09:10:05.750Z,53.30
2018-04-02T09:11:05.706Z,53.80
2018-04-02T09:12:05.681Z,51.00
2018-04-02T09:13:05.669Z,49.20
2018-04-02T09:14:05.658Z,51.10
2018-04-02T09:15:05.638Z,50.00
2018-04-02T09:16:05.624Z,49.20
2018-04-02T09:17:05.619Z,49.90
2018-04-02T09:18:05.598Z,49.30
2018-04-02T09:19:05.591Z,48.10
2018-04-02T09:20:05.578Z,48.70
2018-04-02T09:21:05.565Z,46.20
2018-04-02T09:22:05.543Z,45.70
2018-04-02T09:23:05.524Z,44.60
2018-04-02T09:24:05.513Z,46.90
2018-04-02T09:25:05.501Z,47.30
2018-04-02T09:26:05.487Z,43.80
2018-04-02T09:27:05.479Z,45.40
2018-04-02T09:28:05.468Z,43.50
2018-04-02T09:29:05.444Z,44.40
2018-04-02T09:30:05.428Z,42.80
2018-04-02T09:31:05.432Z,41.30
2018-04-02T09:32:05.398Z,41.70
2018-04-02T09:33:05.384Z,40.80
2018-04-02T09:34:05.374Z,42.00
2018-04-02T09:35:05.400Z,38.60
2018-04-02T09:36:05.345Z,40.20
2018-04-02T09:37:05.334Z,40.10
2018-04-02T09:38:05.316Z,39.30
2018-04-02T09:39:05.302Z,39.40
2018-04-02T09:40:05.291Z,38.80
2018-04-02T09:41:05.277Z,31.50
2018-04-02T09:42:05.272Z,37.70
2018-04-02T09:43:05.251Z,37.80
2018-04-02T09:44:05.237Z,39.70
2018-04-02T09:45:05.223Z,39.30
2018-04-02T09:46:05.214Z,35.00
2018-04-02T09:47:05.203Z,34.80
2018-04-02T09:48:05.248Z,34.30
2018-04-02T09:49:05.179Z,38.30
2018-04-02T09:50:05.159Z,39.80
2018-04-02T09:51:05.144Z,41.30
2018-04-02T09:52:05.140Z,41.30
2018-04-02T09:53:05.129Z,40.30
2018-04-02T09:54:05.191Z,36.10
2018-04-02T09:55:05.101Z,39.70
2018-04-02T09:56:05.080Z,37.20
2018-04-02T09:57:05.073Z,37.40
2018-04-02T09:58:05.058Z,36.60
2018-04-02T09:59:05.038Z,38.00
2018-04-02T10:00:05.029Z,34.10
2018-04-02T10:01:05.025Z,30.70
2018-04-02T10:02:05.004Z,31.00
2018-04-02T10:03:04.992Z,29.80
2018-04-02T10:04:04.975Z,30.40
2018-04-02T10:05:05.105Z,31.20
2018-04-02T10:06:04.953Z,32.90
2018-04-02T10:07:04.941Z,32.70
2018-04-02T10:08:04.919Z,31.60
2018-04-02T10:09:04.913Z,31.40
2018-04-02T10:10:04.949Z,31.10
2018-04-02T10:11:04.873Z,31.10
2018-04-02T10:12:04.863Z,30.60
2018-04-02T10:13:04.858Z,32.60
2018-04-02T10:14:04.840Z,32.30
2018-04-02T10:15:04.818Z,33.50
2018-04-02T10:16:04.811Z,33.40
2018-04-02T10:17:04.789Z,31.00
2018-04-02T10:18:04.782Z,27.20
2018-04-02T10:19:04.759Z,32.40
2018-04-02T10:20:04.740Z,30.00
2018-04-02T10:21:04.741Z,29.80
2018-04-02T10:22:04.712Z,30.80
2018-04-02T10:23:04.698Z,30.10
2018-04-02T10:24:04.781Z,27.00
2018-04-02T10:25:04.667Z,29.30
2018-04-02T10:26:04.653Z,31.10
2018-04-02T10:27:04.652Z,28.80
2018-04-02T10:28:04.620Z,28.70
2018-04-02T10:29:04.605Z,26.80
2018-04-02T10:30:04.672Z,30.00
2018-04-02T10:31:04.613Z,30.50
2018-04-02T10:32:04.565Z,31.10
2018-04-02T10:33:04.547Z,27.10
2018-04-02T10:34:04.536Z,30.90
2018-04-02T10:35:04.518Z,31.20
2018-04-02T10:36:04.506Z,33.40
2018-04-02T10:37:04.499Z,30.30
2018-04-02T10:38:04.482Z,32.30
2018-04-02T10:39:04.465Z,32.20
2018-04-02T10:40:04.450Z,32.20
2018-04-02T10:41:04.435Z,33.80
2018-04-02T10:42:04.424Z,31.30
2018-04-02T10:43:04.405Z,32.60
2018-04-02T10:44:04.396Z,33.50
2018-04-02T10:45:04.384Z,32.60
2018-04-02T10:46:04.377Z,32.80
2018-04-02T10:47:04.374Z,32.20
2018-04-02T10:48:04.349Z,33.50
2018-04-02T10:49:04.387Z,33.30
2018-04-02T10:50:04.320Z,30.80
2018-04-02T10:51:04.304Z,33.10
2018-04-02T10:52:04.295Z,31.00
2018-04-02T10:53:04.293Z,30.80
2018-04-02T10:54:04.272Z,30.00
2018-04-02T10:55:04.260Z,30.10
2018-04-02T10:56:04.246Z,31.50
2018-04-02T10:57:04.238Z,31.80
2018-04-02T10:58:04.229Z,32.10
2018-04-02T10:59:04.223Z,31.40
2018-04-02T11:00:04.199Z,30.50
2018-04-02T11:01:04.190Z,31.40
2018-04-02T11:02:04.183Z,32.90
2018-04-02T11:03:04.164Z,31.40
2018-04-02T11:04:04.262Z,31.20
2018-04-02T11:05:04.150Z,32.70
2018-04-02T11:06:04.133Z,28.40
2018-04-02T11:07:04.223Z,29.80
2018-04-02T11:08:04.111Z,30.20
2018-04-02T11:09:04.101Z,30.20
2018-04-02T11:10:04.091Z,26.90
2018-04-02T11:11:04.078Z,28.10
2018-04-02T11:12:04.066Z,26.60
2018-04-02T11:13:04.057Z,28.50
2018-04-02T11:14:04.059Z,28.00
2018-04-02T11:15:04.036Z,26.50
2018-04-02T11:16:04.037Z,30.20
2018-04-02T11:17:04.025Z,29.10
2018-04-02T11:18:04.012Z,31.30
2018-04-02T11:19:03.997Z,31.10
2018-04-02T11:20:04.150Z,25.50
2018-04-02T11:21:03.984Z,28.00
2018-04-02T11:22:03.966Z,29.40
2018-04-02T11:23:03.949Z,28.20
2018-04-02T11:24:03.941Z,29.70
2018-04-02T11:25:03.940Z,29.60
2018-04-02T11:26:03.920Z,29.80
2018-04-02T11:27:03.923Z,28.80
2018-04-02T11:28:03.898Z,27.90
2018-04-02T11:29:03.883Z,26.70
2018-04-02T11:30:03.871Z,26.20
2018-04-02T11:31:03.859Z,25.90
2018-04-02T11:32:03.848Z,25.80
2018-04-02T11:33:03.934Z,27.60
2018-04-02T11:34:03.821Z,22.70
2018-04-02T11:35:03.806Z,24.90
2018-04-02T11:36:03.804Z,26.90
2018-04-02T11:37:03.780Z,27.60
2018-04-02T11:38:03.768Z,27.90
2018-04-02T11:39:03.754Z,27.00
2018-04-02T11:40:03.739Z,25.80
2018-04-02T11:41:03.726Z,27.30
2018-04-02T11:42:03.718Z,26.10
2018-04-02T11:43:03.698Z,26.80
2018-04-02T11:44:03.705Z,26.70
2018-04-02T11:45:03.672Z,26.00
2018-04-02T11:46:03.664Z,25.50
2018-04-02T11:47:03.647Z,24.60
2018-04-02T11:48:03.629Z,25.60
2018-04-02T11:49:03.631Z,25.80
2018-04-02T11:50:03.608Z,24.40
2018-04-02T11:51:03.586Z,25.40
2018-04-02T11:52:03.591Z,25.50
2018-04-02T11:53:03.558Z,24.90
2018-04-02T11:54:03.552Z,24.40
2018-04-02T11:55:03.533Z,23.70
2018-04-02T11:56:03.515Z,23.10
2018-04-02T11:57:03.499Z,23.70
2018-04-02T11:58:03.485Z,22.60
2018-04-02T11:59:03.468Z,21.20
2018-04-02T12:00:03.454Z,21.80
2018-04-02T12:01:03.439Z,21.30
2018-04-02T12:02:03.427Z,20.50
2018-04-02T12:03:03.413Z,19.20
2018-04-02T12:04:03.398Z,20.00
2018-04-02T12:05:03.390Z,20.70
2018-04-02T12:06:03.374Z,20.90
2018-04-02T12:07:03.363Z,21.70
2018-04-02T12:08:03.336Z,21.00
2018-04-02T12:09:03.325Z,22.10
2018-04-02T12:10:03.311Z,21.10
2018-04-02T12:11:03.293Z,21.30
2018-04-02T12:12:03.282Z,22.10
2018-04-02T12:13:03.430Z,21.30
2018-04-02T12:14:03.245Z,21.80
2018-04-02T12:15:03.232Z,20.90
2018-04-02T12:16:03.251Z,18.60
2018-04-02T12:17:03.206Z,16.20
2018-04-02T12:18:03.187Z,16.00
2018-04-02T12:19:03.173Z,15.60
2018-04-02T12:20:03.158Z,14.00
2018-04-02T12:21:03.200Z,10.70
2018-04-02T12:22:03.134Z,10.30
2018-04-02T12:23:03.116Z,11.50
2018-04-02T12:24:03.098Z,9.50
2018-04-02T12:25:03.084Z,8.00
2018-04-02T12:26:03.070Z,7.70
2018-04-02T12:27:03.066Z,7.10
2018-04-02T12:28:03.036Z,7.10
2018-04-02T12:29:03.022Z,6.60
2018-04-02T12:30:03.014Z,6.30
2018-04-02T12:31:02.992Z,7.10
2018-04-02T12:32:03.032Z,6.70
2018-04-02T12:33:02.972Z,6.40
2018-04-02T12:34:02.945Z,6.30
2018-04-02T12:35:02.931Z,5.60
2018-04-02T12:36:02.981Z,6.00
2018-04-02T12:37:02.904Z,6.60
2018-04-02T12:38:02.893Z,6.20
2018-04-02T12:39:02.871Z,6.70
2018-04-02T12:40:02.855Z,6.50
2018-04-02T12:41:02.847Z,6.60
2018-04-02T12:42:02.829Z,6.80
2018-04-02T12:43:02.811Z,6.20
2018-04-02T12:44:02.805Z,6.40
2018-04-02T12:45:02.780Z,6.00
2018-04-02T12:46:02.769Z,6.70
2018-04-02T12:47:02.751Z,6.40
2018-04-02T12:48:02.742Z,5.70
2018-04-02T12:49:02.735Z,6.00
2018-04-02T12:50:02.717Z,6.00